sensor_id;sensor_type;location;lat;lon;timestamp;temperature;humidity
47765;DHT22;33529;49.242;8.670;2024-02-21T00:00:34;7.10;99.90
47765;DHT22;33529;49.242;8.670;2024-02-21T00:03:00;7.10;99.90
47765;DHT22;33529;49.242;8.670;2024-02-21T00:05:29;7.10;99.90
47765;DHT22;33529;49.242;8.670;2024-02-21T00:07:57;7.10;99.90
47765;DHT22;33529;49.242;8.670;2024-02-21T00:10:24;7.10;99.90
47765;DHT22;33529;49.242;8.670;2024-02-21T00:12:52;7.20;99.90
47765;DHT22;33529;49.242;8.670;2024-02-21T00:15:19;7.20;99.90
47765;DHT22;33529;49.242;8.670;2024-02-21T00:17:46;7.20;99.90
47765;DHT22;33529;49.242;8.670;2024-02-21T00:20:13;7.20;99.90
47765;DHT22;33529;49.242;8.670;2024-02-21T00:22:40;7.20;99.90
47765;DHT22;33529;49.242;8.670;2024-02-21T00:25:07;7.30;99.90
47765;DHT22;33529;49.242;8.670;2024-02-21T00:27:35;7.30;99.90
47765;DHT22;33529;49.242;8.670;2024-02-21T00:30:02;7.20;99.90
47765;DHT22;33529;49.242;8.670;2024-02-21T00:32:29;7.20;99.90
47765;DHT22;33529;49.242;8.670;2024-02-21T00:34:56;7.20;99.90
47765;DHT22;33529;49.242;8.670;2024-02-21T00:37:23;7.30;99.90
47765;DHT22;33529;49.242;8.670;2024-02-21T00:39:50;7.30;99.90
47765;DHT22;33529;49.242;8.670;2024-02-21T00:42:18;7.30;99.90
47765;DHT22;33529;49.242;8.670;2024-02-21T00:44:45;7.30;99.90
47765;DHT22;33529;49.242;8.670;2024-02-21T00:47:12;7.40;99.90
47765;DHT22;33529;49.242;8.670;2024-02-21T00:49:39;7.30;99.90
47765;DHT22;33529;49.242;8.670;2024-02-21T00:52:06;7.30;99.90
47765;DHT22;33529;49.242;8.670;2024-02-21T00:54:33;7.40;99.90
47765;DHT22;33529;49.242;8.670;2024-02-21T00:57:16;7.40;99.90
47765;DHT22;33529;49.242;8.670;2024-02-21T00:59:43;7.40;99.90
47765;DHT22;33529;49.242;8.670;2024-02-21T01:02:10;7.40;99.90
47765;DHT22;33529;49.242;8.670;2024-02-21T01:04:37;7.40;99.90
47765;DHT22;33529;49.242;8.670;2024-02-21T01:07:04;7.30;99.90
47765;DHT22;33529;49.242;8.670;2024-02-21T01:09:31;7.30;99.90
47765;DHT22;33529;49.242;8.670;2024-02-21T01:11:58;7.40;99.90
47765;DHT22;33529;49.242;8.670;2024-02-21T01:14:25;7.30;99.90
47765;DHT22;33529;49.242;8.670;2024-02-21T01:16:52;7.40;99.90
47765;DHT22;33529;49.242;8.670;2024-02-21T01:19:19;7.40;99.90
47765;DHT22;33529;49.242;8.670;2024-02-21T01:21:46;7.30;99.90
47765;DHT22;33529;49.242;8.670;2024-02-21T01:24:12;7.30;99.90
47765;DHT22;33529;49.242;8.670;2024-02-21T01:26:40;7.30;99.90
47765;DHT22;33529;49.242;8.670;2024-02-21T01:29:07;7.30;99.90
47765;DHT22;33529;49.242;8.670;2024-02-21T01:31:34;7.20;99.90
47765;DHT22;33529;49.242;8.670;2024-02-21T01:34:01;7.20;99.90
47765;DHT22;33529;49.242;8.670;2024-02-21T01:36:28;7.20;99.90
47765;DHT22;33529;49.242;8.670;2024-02-21T01:38:55;7.10;99.90
47765;DHT22;33529;49.242;8.670;2024-02-21T01:41:22;7.10;99.90
47765;DHT22;33529;49.242;8.670;2024-02-21T01:43:49;7.10;99.90
47765;DHT22;33529;49.242;8.670;2024-02-21T01:46:16;7.10;99.90
47765;DHT22;33529;49.242;8.670;2024-02-21T01:48:43;7.00;99.90
47765;DHT22;33529;49.242;8.670;2024-02-21T01:51:12;7.10;99.90
47765;DHT22;33529;49.242;8.670;2024-02-21T01:53:43;7.10;99.90
47765;DHT22;33529;49.242;8.670;2024-02-21T01:56:12;7.20;99.90
47765;DHT22;33529;49.242;8.670;2024-02-21T01:58:40;7.10;99.90
47765;DHT22;33529;49.242;8.670;2024-02-21T02:01:10;7.10;99.90
47765;DHT22;33529;49.242;8.670;2024-02-21T02:03:37;7.10;99.90
47765;DHT22;33529;49.242;8.670;2024-02-21T02:06:07;7.10;99.90
47765;DHT22;33529;49.242;8.670;2024-02-21T02:08:34;7.00;99.90
47765;DHT22;33529;49.242;8.670;2024-02-21T02:11:01;7.10;99.90
47765;DHT22;33529;49.242;8.670;2024-02-21T02:13:29;7.10;99.90
47765;DHT22;33529;49.242;8.670;2024-02-21T02:15:55;7.10;99.90
47765;DHT22;33529;49.242;8.670;2024-02-21T02:18:22;7.00;99.90
47765;DHT22;33529;49.242;8.670;2024-02-21T02:20:49;7.00;99.90
47765;DHT22;33529;49.242;8.670;2024-02-21T02:25:51;6.90;99.90
47765;DHT22;33529;49.242;8.670;2024-02-21T02:28:22;6.90;99.90
47765;DHT22;33529;49.242;8.670;2024-02-21T02:30:49;6.90;99.90
47765;DHT22;33529;49.242;8.670;2024-02-21T02:33:16;6.90;99.90
47765;DHT22;33529;49.242;8.670;2024-02-21T02:35:47;6.90;99.90
47765;DHT22;33529;49.242;8.670;2024-02-21T02:38:14;6.90;99.90
47765;DHT22;33529;49.242;8.670;2024-02-21T02:40:42;6.90;99.90
47765;DHT22;33529;49.242;8.670;2024-02-21T02:43:09;6.90;99.90
47765;DHT22;33529;49.242;8.670;2024-02-21T02:45:36;6.90;99.90
47765;DHT22;33529;49.242;8.670;2024-02-21T02:48:03;6.90;99.90
47765;DHT22;33529;49.242;8.670;2024-02-21T02:50:31;6.90;99.90
47765;DHT22;33529;49.242;8.670;2024-02-21T02:52:58;6.90;99.90
47765;DHT22;33529;49.242;8.670;2024-02-21T02:55:25;6.90;99.90
47765;DHT22;33529;49.242;8.670;2024-02-21T02:57:55;6.80;99.90
47765;DHT22;33529;49.242;8.670;2024-02-21T03:00:22;6.80;99.90
47765;DHT22;33529;49.242;8.670;2024-02-21T03:02:50;6.70;99.90
47765;DHT22;33529;49.242;8.670;2024-02-21T03:05:21;6.70;99.90
47765;DHT22;33529;49.242;8.670;2024-02-21T03:07:48;6.80;99.90
47765;DHT22;33529;49.242;8.670;2024-02-21T03:10:16;6.70;99.90
47765;DHT22;33529;49.242;8.670;2024-02-21T03:12:44;6.70;99.90
47765;DHT22;33529;49.242;8.670;2024-02-21T03:15:12;6.60;99.90
47765;DHT22;33529;49.242;8.670;2024-02-21T03:17:40;6.60;99.90
47765;DHT22;33529;49.242;8.670;2024-02-21T03:20:07;6.60;99.90
47765;DHT22;33529;49.242;8.670;2024-02-21T03:22:40;6.60;99.90
47765;DHT22;33529;49.242;8.670;2024-02-21T03:25:09;6.60;99.90
47765;DHT22;33529;49.242;8.670;2024-02-21T03:27:36;6.50;99.90
47765;DHT22;33529;49.242;8.670;2024-02-21T03:30:04;6.60;99.90
47765;DHT22;33529;49.242;8.670;2024-02-21T03:32:32;6.50;99.90
47765;DHT22;33529;49.242;8.670;2024-02-21T03:34:59;6.50;99.90
47765;DHT22;33529;49.242;8.670;2024-02-21T03:37:26;6.50;99.90
47765;DHT22;33529;49.242;8.670;2024-02-21T03:39:53;6.50;99.90
47765;DHT22;33529;49.242;8.670;2024-02-21T03:42:20;6.50;99.90
47765;DHT22;33529;49.242;8.670;2024-02-21T03:44:47;6.60;99.90
47765;DHT22;33529;49.242;8.670;2024-02-21T03:47:14;6.50;99.90
47765;DHT22;33529;49.242;8.670;2024-02-21T03:49:40;6.40;99.90
47765;DHT22;33529;49.242;8.670;2024-02-21T03:52:08;6.40;99.90
47765;DHT22;33529;49.242;8.670;2024-02-21T03:54:36;6.40;99.90
47765;DHT22;33529;49.242;8.670;2024-02-21T03:57:02;6.40;99.90
47765;DHT22;33529;49.242;8.670;2024-02-21T03:59:29;6.40;99.90
47765;DHT22;33529;49.242;8.670;2024-02-21T04:01:56;6.30;99.90
47765;DHT22;33529;49.242;8.670;2024-02-21T04:04:23;6.30;99.90
47765;DHT22;33529;49.242;8.670;2024-02-21T04:06:51;6.30;99.90
47765;DHT22;33529;49.242;8.670;2024-02-21T04:09:18;6.30;99.90
47765;DHT22;33529;49.242;8.670;2024-02-21T04:11:45;6.30;99.90
47765;DHT22;33529;49.242;8.670;2024-02-21T04:14:12;6.30;99.90
47765;DHT22;33529;49.242;8.670;2024-02-21T04:16:39;6.20;99.90
47765;DHT22;33529;49.242;8.670;2024-02-21T04:19:07;6.20;99.90
47765;DHT22;33529;49.242;8.670;2024-02-21T04:21:34;6.20;99.90
47765;DHT22;33529;49.242;8.670;2024-02-21T04:24:01;6.20;99.90
47765;DHT22;33529;49.242;8.670;2024-02-21T04:26:30;6.10;99.90
47765;DHT22;33529;49.242;8.670;2024-02-21T04:28:57;6.10;99.90
47765;DHT22;33529;49.242;8.670;2024-02-21T04:31:24;6.00;99.90
47765;DHT22;33529;49.242;8.670;2024-02-21T04:33:51;6.00;99.90
47765;DHT22;33529;49.242;8.670;2024-02-21T04:36:18;5.90;99.90
47765;DHT22;33529;49.242;8.670;2024-02-21T04:38:45;5.90;99.90
47765;DHT22;33529;49.242;8.670;2024-02-21T04:41:12;5.90;99.90
47765;DHT22;33529;49.242;8.670;2024-02-21T04:43:39;5.80;99.90
47765;DHT22;33529;49.242;8.670;2024-02-21T04:46:06;5.80;99.90
47765;DHT22;33529;49.242;8.670;2024-02-21T04:48:33;5.80;99.90
47765;DHT22;33529;49.242;8.670;2024-02-21T04:51:00;5.80;99.90
47765;DHT22;33529;49.242;8.670;2024-02-21T04:53:28;5.70;99.90
47765;DHT22;33529;49.242;8.670;2024-02-21T04:55:55;5.70;99.90
47765;DHT22;33529;49.242;8.670;2024-02-21T04:58:22;5.70;99.90
47765;DHT22;33529;49.242;8.670;2024-02-21T05:00:49;5.70;99.90
47765;DHT22;33529;49.242;8.670;2024-02-21T05:03:16;5.60;99.90
47765;DHT22;33529;49.242;8.670;2024-02-21T05:05:42;5.60;99.90
47765;DHT22;33529;49.242;8.670;2024-02-21T05:08:10;5.60;99.90
47765;DHT22;33529;49.242;8.670;2024-02-21T05:10:37;5.60;99.90
47765;DHT22;33529;49.242;8.670;2024-02-21T05:13:05;5.50;99.90
47765;DHT22;33529;49.242;8.670;2024-02-21T05:15:32;5.50;99.90
47765;DHT22;33529;49.242;8.670;2024-02-21T05:17:59;5.50;99.90
47765;DHT22;33529;49.242;8.670;2024-02-21T05:20:26;5.50;99.90
47765;DHT22;33529;49.242;8.670;2024-02-21T05:22:53;5.50;99.90
47765;DHT22;33529;49.242;8.670;2024-02-21T05:25:20;5.50;99.90
47765;DHT22;33529;49.242;8.670;2024-02-21T05:27:47;5.40;99.90
47765;DHT22;33529;49.242;8.670;2024-02-21T05:30:14;5.40;99.90
47765;DHT22;33529;49.242;8.670;2024-02-21T05:32:41;5.40;99.90
47765;DHT22;33529;49.242;8.670;2024-02-21T05:35:08;5.30;99.90
47765;DHT22;33529;49.242;8.670;2024-02-21T05:37:35;5.30;99.90
47765;DHT22;33529;49.242;8.670;2024-02-21T05:40:02;5.30;99.90
47765;DHT22;33529;49.242;8.670;2024-02-21T05:42:29;5.20;99.90
47765;DHT22;33529;49.242;8.670;2024-02-21T05:44:56;5.20;99.90
47765;DHT22;33529;49.242;8.670;2024-02-21T05:47:23;5.20;99.90
47765;DHT22;33529;49.242;8.670;2024-02-21T05:49:50;5.10;99.90
47765;DHT22;33529;49.242;8.670;2024-02-21T05:52:20;5.10;99.90
47765;DHT22;33529;49.242;8.670;2024-02-21T05:54:47;5.10;99.90
47765;DHT22;33529;49.242;8.670;2024-02-21T05:57:17;5.20;99.90
47765;DHT22;33529;49.242;8.670;2024-02-21T05:59:44;5.10;99.90
47765;DHT22;33529;49.242;8.670;2024-02-21T06:02:11;5.10;99.90
47765;DHT22;33529;49.242;8.670;2024-02-21T06:04:38;5.00;99.90
47765;DHT22;33529;49.242;8.670;2024-02-21T06:07:06;5.00;99.90
47765;DHT22;33529;49.242;8.670;2024-02-21T06:09:33;5.00;99.90
47765;DHT22;33529;49.242;8.670;2024-02-21T06:12:00;4.90;99.90
47765;DHT22;33529;49.242;8.670;2024-02-21T06:14:27;5.00;99.90
47765;DHT22;33529;49.242;8.670;2024-02-21T06:16:54;4.90;99.90
47765;DHT22;33529;49.242;8.670;2024-02-21T06:19:21;4.90;99.90
47765;DHT22;33529;49.242;8.670;2024-02-21T06:21:48;4.90;99.90
47765;DHT22;33529;49.242;8.670;2024-02-21T06:24:15;4.90;99.90
47765;DHT22;33529;49.242;8.670;2024-02-21T06:26:41;4.90;99.90
47765;DHT22;33529;49.242;8.670;2024-02-21T06:29:08;4.90;99.90
47765;DHT22;33529;49.242;8.670;2024-02-21T06:31:35;4.90;99.90
47765;DHT22;33529;49.242;8.670;2024-02-21T06:34:03;4.90;99.90
47765;DHT22;33529;49.242;8.670;2024-02-21T06:36:31;4.90;99.90
47765;DHT22;33529;49.242;8.670;2024-02-21T06:39:01;4.90;99.90
47765;DHT22;33529;49.242;8.670;2024-02-21T06:41:28;4.90;99.90
47765;DHT22;33529;49.242;8.670;2024-02-21T06:43:57;4.90;99.90
47765;DHT22;33529;49.242;8.670;2024-02-21T06:46:27;4.90;99.90
47765;DHT22;33529;49.242;8.670;2024-02-21T06:48:58;5.00;99.90
47765;DHT22;33529;49.242;8.670;2024-02-21T06:51:27;5.00;99.90
47765;DHT22;33529;49.242;8.670;2024-02-21T06:53:55;5.10;99.90
47765;DHT22;33529;49.242;8.670;2024-02-21T06:56:25;5.00;99.90
47765;DHT22;33529;49.242;8.670;2024-02-21T06:58:55;5.10;99.90
47765;DHT22;33529;49.242;8.670;2024-02-21T07:01:26;5.10;99.90
47765;DHT22;33529;49.242;8.670;2024-02-21T07:03:53;5.20;99.90
47765;DHT22;33529;49.242;8.670;2024-02-21T07:06:21;5.30;99.90
47765;DHT22;33529;49.242;8.670;2024-02-21T07:08:48;5.40;99.90
47765;DHT22;33529;49.242;8.670;2024-02-21T07:11:15;5.40;99.90
47765;DHT22;33529;49.242;8.670;2024-02-21T07:13:42;5.50;99.90
47765;DHT22;33529;49.242;8.670;2024-02-21T07:16:09;5.60;99.90
47765;DHT22;33529;49.242;8.670;2024-02-21T07:18:36;5.70;99.90
47765;DHT22;33529;49.242;8.670;2024-02-21T07:21:03;5.80;99.90
47765;DHT22;33529;49.242;8.670;2024-02-21T07:23:30;5.80;99.90
47765;DHT22;33529;49.242;8.670;2024-02-21T07:25:57;5.90;99.90
47765;DHT22;33529;49.242;8.670;2024-02-21T07:28:23;5.90;99.90
47765;DHT22;33529;49.242;8.670;2024-02-21T07:30:50;6.00;99.90
47765;DHT22;33529;49.242;8.670;2024-02-21T07:33:17;6.00;99.90
47765;DHT22;33529;49.242;8.670;2024-02-21T07:35:44;6.10;99.90
47765;DHT22;33529;49.242;8.670;2024-02-21T07:38:12;6.20;99.90
47765;DHT22;33529;49.242;8.670;2024-02-21T07:40:40;6.30;99.90
47765;DHT22;33529;49.242;8.670;2024-02-21T07:43:08;6.40;99.90
47765;DHT22;33529;49.242;8.670;2024-02-21T07:45:35;6.40;99.90
47765;DHT22;33529;49.242;8.670;2024-02-21T07:48:02;6.50;99.90
47765;DHT22;33529;49.242;8.670;2024-02-21T07:50:29;6.60;99.90
47765;DHT22;33529;49.242;8.670;2024-02-21T07:52:56;6.60;99.90
47765;DHT22;33529;49.242;8.670;2024-02-21T07:55:23;6.60;99.90
47765;DHT22;33529;49.242;8.670;2024-02-21T07:57:50;6.70;99.90
47765;DHT22;33529;49.242;8.670;2024-02-21T08:00:18;6.80;99.90
47765;DHT22;33529;49.242;8.670;2024-02-21T08:02:48;6.80;99.90
47765;DHT22;33529;49.242;8.670;2024-02-21T08:05:15;6.80;99.90
47765;DHT22;33529;49.242;8.670;2024-02-21T08:07:42;6.90;99.90
47765;DHT22;33529;49.242;8.670;2024-02-21T08:10:09;7.00;99.90
47765;DHT22;33529;49.242;8.670;2024-02-21T08:12:37;7.10;99.90
47765;DHT22;33529;49.242;8.670;2024-02-21T08:15:04;7.20;99.90
47765;DHT22;33529;49.242;8.670;2024-02-21T08:17:31;7.30;99.90
47765;DHT22;33529;49.242;8.670;2024-02-21T08:19:58;7.30;99.90
47765;DHT22;33529;49.242;8.670;2024-02-21T08:22:26;7.40;99.90
47765;DHT22;33529;49.242;8.670;2024-02-21T08:24:53;7.40;99.90
47765;DHT22;33529;49.242;8.670;2024-02-21T08:27:20;7.50;99.90
47765;DHT22;33529;49.242;8.670;2024-02-21T08:29:47;7.50;99.90
47765;DHT22;33529;49.242;8.670;2024-02-21T08:32:14;7.60;99.90
47765;DHT22;33529;49.242;8.670;2024-02-21T08:34:41;7.60;99.90
47765;DHT22;33529;49.242;8.670;2024-02-21T08:37:08;7.70;99.90
47765;DHT22;33529;49.242;8.670;2024-02-21T08:39:35;7.80;99.90
47765;DHT22;33529;49.242;8.670;2024-02-21T08:42:01;7.80;99.90
47765;DHT22;33529;49.242;8.670;2024-02-21T08:44:28;7.90;99.90
47765;DHT22;33529;49.242;8.670;2024-02-21T08:46:55;7.90;99.90
47765;DHT22;33529;49.242;8.670;2024-02-21T08:49:23;7.90;99.90
47765;DHT22;33529;49.242;8.670;2024-02-21T08:51:59;7.90;99.90
47765;DHT22;33529;49.242;8.670;2024-02-21T08:54:26;8.00;99.90
47765;DHT22;33529;49.242;8.670;2024-02-21T08:56:54;8.00;99.90
47765;DHT22;33529;49.242;8.670;2024-02-21T08:59:21;8.00;99.90
47765;DHT22;33529;49.242;8.670;2024-02-21T09:01:48;8.00;99.90
47765;DHT22;33529;49.242;8.670;2024-02-21T09:04:15;8.00;99.90
47765;DHT22;33529;49.242;8.670;2024-02-21T09:06:42;7.90;99.90
47765;DHT22;33529;49.242;8.670;2024-02-21T09:09:09;8.00;99.90
47765;DHT22;33529;49.242;8.670;2024-02-21T09:11:37;8.10;99.90
47765;DHT22;33529;49.242;8.670;2024-02-21T09:14:04;8.20;99.90
47765;DHT22;33529;49.242;8.670;2024-02-21T09:16:31;8.30;99.90
47765;DHT22;33529;49.242;8.670;2024-02-21T09:18:59;8.30;99.90
47765;DHT22;33529;49.242;8.670;2024-02-21T09:21:26;8.30;99.90
47765;DHT22;33529;49.242;8.670;2024-02-21T09:23:55;8.40;99.90
47765;DHT22;33529;49.242;8.670;2024-02-21T09:26:25;8.60;99.90
47765;DHT22;33529;49.242;8.670;2024-02-21T09:28:51;8.70;99.90
47765;DHT22;33529;49.242;8.670;2024-02-21T09:31:18;8.70;99.90
47765;DHT22;33529;49.242;8.670;2024-02-21T09:33:46;8.90;99.90
47765;DHT22;33529;49.242;8.670;2024-02-21T09:36:14;8.90;99.90
47765;DHT22;33529;49.242;8.670;2024-02-21T09:38:41;9.10;99.90
47765;DHT22;33529;49.242;8.670;2024-02-21T09:41:27;9.20;99.90
47765;DHT22;33529;49.242;8.670;2024-02-21T09:43:57;9.20;99.90
47765;DHT22;33529;49.242;8.670;2024-02-21T09:46:44;9.20;99.90
47765;DHT22;33529;49.242;8.670;2024-02-21T09:51:50;9.40;99.90
47765;DHT22;33529;49.242;8.670;2024-02-21T09:54:18;9.50;99.90
47765;DHT22;33529;49.242;8.670;2024-02-21T09:56:46;9.50;99.90
47765;DHT22;33529;49.242;8.670;2024-02-21T09:59:15;9.60;99.90
47765;DHT22;33529;49.242;8.670;2024-02-21T10:01:43;9.80;99.90
47765;DHT22;33529;49.242;8.670;2024-02-21T10:04:11;9.80;99.90
47765;DHT22;33529;49.242;8.670;2024-02-21T10:06:38;9.80;99.90
47765;DHT22;33529;49.242;8.670;2024-02-21T10:09:06;10.00;99.90
47765;DHT22;33529;49.242;8.670;2024-02-21T10:11:33;10.00;99.90
47765;DHT22;33529;49.242;8.670;2024-02-21T10:14:07;10.10;99.90
47765;DHT22;33529;49.242;8.670;2024-02-21T10:16:35;10.30;99.90
47765;DHT22;33529;49.242;8.670;2024-02-21T10:19:04;10.30;99.90
47765;DHT22;33529;49.242;8.670;2024-02-21T10:21:31;10.50;99.90
47765;DHT22;33529;49.242;8.670;2024-02-21T10:23:58;10.50;99.90
47765;DHT22;33529;49.242;8.670;2024-02-21T10:26:24;10.60;99.90
47765;DHT22;33529;49.242;8.670;2024-02-21T10:28:51;10.60;99.90
47765;DHT22;33529;49.242;8.670;2024-02-21T10:31:27;10.60;99.90
47765;DHT22;33529;49.242;8.670;2024-02-21T10:33:59;10.80;99.90
47765;DHT22;33529;49.242;8.670;2024-02-21T10:36:26;10.90;99.90
47765;DHT22;33529;49.242;8.670;2024-02-21T10:38:54;10.90;99.90
47765;DHT22;33529;49.242;8.670;2024-02-21T10:41:22;10.90;99.90
47765;DHT22;33529;49.242;8.670;2024-02-21T10:43:53;11.00;99.90
47765;DHT22;33529;49.242;8.670;2024-02-21T10:46:24;11.00;99.90
47765;DHT22;33529;49.242;8.670;2024-02-21T10:49:15;10.90;99.90
47765;DHT22;33529;49.242;8.670;2024-02-21T10:51:44;11.00;99.90
47765;DHT22;33529;49.242;8.670;2024-02-21T10:54:39;10.90;99.90
47765;DHT22;33529;49.242;8.670;2024-02-21T10:57:08;10.90;99.90
47765;DHT22;33529;49.242;8.670;2024-02-21T10:59:37;11.00;99.90
47765;DHT22;33529;49.242;8.670;2024-02-21T11:02:06;10.90;99.90
47765;DHT22;33529;49.242;8.670;2024-02-21T11:04:34;11.00;99.90
47765;DHT22;33529;49.242;8.670;2024-02-21T11:07:05;11.10;99.90
47765;DHT22;33529;49.242;8.670;2024-02-21T11:09:37;11.10;99.90
47765;DHT22;33529;49.242;8.670;2024-02-21T11:12:05;11.20;99.90
47765;DHT22;33529;49.242;8.670;2024-02-21T11:14:33;11.20;99.90
47765;DHT22;33529;49.242;8.670;2024-02-21T11:17:19;11.20;99.90
47765;DHT22;33529;49.242;8.670;2024-02-21T11:19:47;11.20;99.90
47765;DHT22;33529;49.242;8.670;2024-02-21T11:22:16;11.20;99.90
47765;DHT22;33529;49.242;8.670;2024-02-21T11:24:44;11.30;99.90
47765;DHT22;33529;49.242;8.670;2024-02-21T11:27:15;11.40;99.90
47765;DHT22;33529;49.242;8.670;2024-02-21T11:29:45;11.50;99.90
47765;DHT22;33529;49.242;8.670;2024-02-21T11:32:19;11.30;99.90
47765;DHT22;33529;49.242;8.670;2024-02-21T11:37:28;11.30;99.90
47765;DHT22;33529;49.242;8.670;2024-02-21T11:39:55;11.30;99.90
47765;DHT22;33529;49.242;8.670;2024-02-21T11:42:22;11.30;99.90
47765;DHT22;33529;49.242;8.670;2024-02-21T11:44:55;11.40;99.90
47765;DHT22;33529;49.242;8.670;2024-02-21T11:47:27;11.50;99.90
47765;DHT22;33529;49.242;8.670;2024-02-21T11:49:55;11.60;99.90
47765;DHT22;33529;49.242;8.670;2024-02-21T11:52:23;11.70;99.90
47765;DHT22;33529;49.242;8.670;2024-02-21T11:54:53;11.80;99.90
47765;DHT22;33529;49.242;8.670;2024-02-21T11:57:21;11.80;99.90
47765;DHT22;33529;49.242;8.670;2024-02-21T11:59:48;11.90;99.90
47765;DHT22;33529;49.242;8.670;2024-02-21T12:02:19;11.80;99.90
47765;DHT22;33529;49.242;8.670;2024-02-21T12:04:46;11.90;99.90
47765;DHT22;33529;49.242;8.670;2024-02-21T12:07:15;11.80;99.90
47765;DHT22;33529;49.242;8.670;2024-02-21T12:09:42;11.90;99.90
47765;DHT22;33529;49.242;8.670;2024-02-21T12:12:09;11.90;99.90
47765;DHT22;33529;49.242;8.670;2024-02-21T12:14:36;11.80;99.90
47765;DHT22;33529;49.242;8.670;2024-02-21T12:17:04;11.80;99.90
47765;DHT22;33529;49.242;8.670;2024-02-21T12:19:32;11.80;99.90
47765;DHT22;33529;49.242;8.670;2024-02-21T12:22:00;11.80;99.90
47765;DHT22;33529;49.242;8.670;2024-02-21T12:24:28;12.00;99.90
47765;DHT22;33529;49.242;8.670;2024-02-21T12:26:56;11.80;99.90
47765;DHT22;33529;49.242;8.670;2024-02-21T12:29:25;11.80;99.90
47765;DHT22;33529;49.242;8.670;2024-02-21T12:31:52;12.00;99.90
47765;DHT22;33529;49.242;8.670;2024-02-21T12:34:22;12.00;99.90
47765;DHT22;33529;49.242;8.670;2024-02-21T12:37:04;12.00;99.90
47765;DHT22;33529;49.242;8.670;2024-02-21T12:39:31;12.10;99.90
47765;DHT22;33529;49.242;8.670;2024-02-21T12:41:59;12.20;99.90
47765;DHT22;33529;49.242;8.670;2024-02-21T12:44:26;12.10;99.90
47765;DHT22;33529;49.242;8.670;2024-02-21T12:46:54;12.00;99.90
47765;DHT22;33529;49.242;8.670;2024-02-21T12:49:22;12.00;99.90
47765;DHT22;33529;49.242;8.670;2024-02-21T12:51:49;12.00;99.90
47765;DHT22;33529;49.242;8.670;2024-02-21T12:54:16;12.20;99.90
47765;DHT22;33529;49.242;8.670;2024-02-21T12:56:43;12.20;99.90
47765;DHT22;33529;49.242;8.670;2024-02-21T12:59:10;12.10;99.90
47765;DHT22;33529;49.242;8.670;2024-02-21T13:01:37;12.20;99.90
47765;DHT22;33529;49.242;8.670;2024-02-21T13:04:06;12.30;99.90
47765;DHT22;33529;49.242;8.670;2024-02-21T13:06:34;12.20;99.90
47765;DHT22;33529;49.242;8.670;2024-02-21T13:09:02;12.20;99.90
47765;DHT22;33529;49.242;8.670;2024-02-21T13:11:30;12.30;99.90
47765;DHT22;33529;49.242;8.670;2024-02-21T13:13:58;12.30;99.90
47765;DHT22;33529;49.242;8.670;2024-02-21T13:16:25;12.40;99.90
47765;DHT22;33529;49.242;8.670;2024-02-21T13:18:55;12.30;99.90
47765;DHT22;33529;49.242;8.670;2024-02-21T13:21:22;12.20;99.90
47765;DHT22;33529;49.242;8.670;2024-02-21T13:23:49;12.10;99.90
47765;DHT22;33529;49.242;8.670;2024-02-21T13:26:16;12.20;99.90
47765;DHT22;33529;49.242;8.670;2024-02-21T13:28:43;12.30;99.90
47765;DHT22;33529;49.242;8.670;2024-02-21T13:31:12;12.30;99.90
47765;DHT22;33529;49.242;8.670;2024-02-21T13:33:39;12.30;99.90
47765;DHT22;33529;49.242;8.670;2024-02-21T13:36:08;12.20;99.90
47765;DHT22;33529;49.242;8.670;2024-02-21T13:38:36;12.30;99.90
47765;DHT22;33529;49.242;8.670;2024-02-21T13:41:05;12.40;99.90
47765;DHT22;33529;49.242;8.670;2024-02-21T13:43:35;12.40;99.90
47765;DHT22;33529;49.242;8.670;2024-02-21T13:46:02;12.30;99.90
47765;DHT22;33529;49.242;8.670;2024-02-21T13:48:36;12.20;99.90
47765;DHT22;33529;49.242;8.670;2024-02-21T13:51:03;12.20;99.90
47765;DHT22;33529;49.242;8.670;2024-02-21T13:53:31;12.10;99.90
47765;DHT22;33529;49.242;8.670;2024-02-21T13:55:58;12.00;99.90
47765;DHT22;33529;49.242;8.670;2024-02-21T13:58:25;12.00;99.90
47765;DHT22;33529;49.242;8.670;2024-02-21T14:00:53;12.00;99.90
47765;DHT22;33529;49.242;8.670;2024-02-21T14:03:20;12.10;99.90
47765;DHT22;33529;49.242;8.670;2024-02-21T14:05:47;12.10;99.90
47765;DHT22;33529;49.242;8.670;2024-02-21T14:08:15;12.20;99.90
47765;DHT22;33529;49.242;8.670;2024-02-21T14:10:42;12.20;99.90
47765;DHT22;33529;49.242;8.670;2024-02-21T14:13:09;12.20;99.90
47765;DHT22;33529;49.242;8.670;2024-02-21T14:15:36;12.20;99.90
47765;DHT22;33529;49.242;8.670;2024-02-21T14:18:04;12.30;99.90
47765;DHT22;33529;49.242;8.670;2024-02-21T14:20:36;12.30;99.90
47765;DHT22;33529;49.242;8.670;2024-02-21T14:23:03;12.30;99.90
47765;DHT22;33529;49.242;8.670;2024-02-21T14:25:31;12.30;99.90
47765;DHT22;33529;49.242;8.670;2024-02-21T14:28:00;12.30;99.90
47765;DHT22;33529;49.242;8.670;2024-02-21T14:30:27;12.20;99.90
47765;DHT22;33529;49.242;8.670;2024-02-21T14:32:54;12.10;99.90
47765;DHT22;33529;49.242;8.670;2024-02-21T14:35:21;12.00;99.90
47765;DHT22;33529;49.242;8.670;2024-02-21T14:37:48;12.10;99.90
47765;DHT22;33529;49.242;8.670;2024-02-21T14:40:19;12.00;99.90
47765;DHT22;33529;49.242;8.670;2024-02-21T14:42:47;12.00;99.90
47765;DHT22;33529;49.242;8.670;2024-02-21T14:45:14;12.00;99.90
47765;DHT22;33529;49.242;8.670;2024-02-21T14:47:41;12.00;99.90
47765;DHT22;33529;49.242;8.670;2024-02-21T14:50:08;12.00;99.90
47765;DHT22;33529;49.242;8.670;2024-02-21T14:52:35;12.10;99.90
47765;DHT22;33529;49.242;8.670;2024-02-21T14:55:04;12.10;99.90
47765;DHT22;33529;49.242;8.670;2024-02-21T14:57:32;12.10;99.90
47765;DHT22;33529;49.242;8.670;2024-02-21T14:59:59;12.00;99.90
47765;DHT22;33529;49.242;8.670;2024-02-21T15:02:27;11.90;99.90
47765;DHT22;33529;49.242;8.670;2024-02-21T15:04:55;11.90;99.90
47765;DHT22;33529;49.242;8.670;2024-02-21T15:07:22;12.00;99.90
47765;DHT22;33529;49.242;8.670;2024-02-21T15:09:52;11.90;99.90
47765;DHT22;33529;49.242;8.670;2024-02-21T15:12:19;12.00;99.90
47765;DHT22;33529;49.242;8.670;2024-02-21T15:14:46;12.00;99.90
47765;DHT22;33529;49.242;8.670;2024-02-21T15:17:13;12.00;99.90
47765;DHT22;33529;49.242;8.670;2024-02-21T15:19:40;12.00;99.90
47765;DHT22;33529;49.242;8.670;2024-02-21T15:22:11;12.00;99.90
47765;DHT22;33529;49.242;8.670;2024-02-21T15:24:39;12.00;99.90
47765;DHT22;33529;49.242;8.670;2024-02-21T15:27:06;11.80;99.90
47765;DHT22;33529;49.242;8.670;2024-02-21T15:29:34;11.90;99.90
47765;DHT22;33529;49.242;8.670;2024-02-21T15:32:02;11.90;99.90
47765;DHT22;33529;49.242;8.670;2024-02-21T15:34:30;11.90;99.90
47765;DHT22;33529;49.242;8.670;2024-02-21T15:36:58;11.90;99.90
47765;DHT22;33529;49.242;8.670;2024-02-21T15:39:26;11.80;99.90
47765;DHT22;33529;49.242;8.670;2024-02-21T15:41:56;11.60;99.90
47765;DHT22;33529;49.242;8.670;2024-02-21T15:44:24;11.70;99.90
47765;DHT22;33529;49.242;8.670;2024-02-21T15:46:51;11.50;99.90
47765;DHT22;33529;49.242;8.670;2024-02-21T15:49:20;11.50;99.90
47765;DHT22;33529;49.242;8.670;2024-02-21T15:51:48;11.30;99.90